AKST,Max TemperatureF,Mean TemperatureF,Min TemperatureF,Max Dew PointF,MeanDew PointF,Min DewpointF,Max Humidity, Mean Humidity, Min Humidity, Max Sea Level PressureIn, Mean Sea Level PressureIn, Min Sea Level PressureIn, Max VisibilityMiles, Mean VisibilityMiles, Min VisibilityMiles, Max Wind SpeedMPH, Mean Wind SpeedMPH, Max Gust SpeedMPH,PrecipitationIn, CloudCover, Events, WindDirDegrees
2013-2-1,35,34,33,32,30,28,87,84,75,29.53,29.41,29.26,10,8,3,6,0,,0.00,7,Snow,290
2013-2-2,37,37,37,36,35,34,93,90,87,28.90,28.87,28.86,10,6,3,17,10,26,0.00,8,Rain,57
2013-2-3,37,36,35,36,34,34,93,92,87,29.39,29.21,29.04,10,6,1,23,20,31,0.00,8,Rain,340
2013-2-4,30,29,28,27,23,21,86,76,69,29.61,29.58,29.53,10,10,7,20,13,,0.00,8,Snow,325
2013-2-5,28,27,26,21,19,18,74,73,69,29.81,29.75,29.65,10,10,9,14,10,,0.00,8,Snow,307
2013-2-6,42,38,35,36,33,28,87,78,65,29.33,29.17,29.11,10,9,5,23,15,36,0.00,5,Rain-Snow,160
2013-2-7,39,37,35,34,30,27,87,74,65,29.08,29.06,29.03,10,10,5,17,6,23,0.00,5,Rain,161
2013-2-8,39,38,37,34,32,30,87,79,70,29.25,29.21,29.17,10,10,10,17,7,23,0.00,6,Rain,99
2013-2-9,28,27,26,25,21,19,86,74,69,29.20,29.14,29.10,7,5,3,33,24,44,0.00,8,Snow,270
2013-2-10,35,32,28,30,22,19,87,69,56,29.54,29.48,29.37,10,9,3,16,10,23,0.00,5,Rain-Snow,229
2013-2-11,39,37,33,30,27,21,87,68,52,29.45,29.43,29.41,10,9,2,22,11,30,0.00,3,Rain-Snow,201
2013-2-12,33,32,28,25,22,19,80,69,60,29.71,29.68,29.62,10,10,9,15,9,,0.00,4,Snow,196
2013-2-13,32,28,24,25,23,18,86,80,69,29.58,29.49,29.44,10,7,4,29,22,54,0.00,8,Rain-Snow,35
2013-2-14,24,22,21,18,16,12,86,75,63,30.03,29.88,29.77,8,5,1,32,24,45,0.00,8,Snow,326
2013-2-15,30,26,21,25,19,16,86,76,69,30.13,30.05,29.88,10,7,2,18,6,29,0.00,8,Snow,142
2013-2-16,35,32,28,34,29,23,93,85,60,29.71,29.42,29.26,5,3,1,34,20,46,0.00,8,Snow,356
2013-2-17,30,27,24,28,22,19,100,79,69,30.27,30.21,30.09,10,10,10,18,8,24,0.00,8,,81
2013-2-18,44,42,39,37,36,36,93,81,71,29.58,29.51,29.47,10,10,10,17,9,24,0.00,6,Rain,135
2013-2-19,37,35,33,34,28,25,93,72,60,29.91,29.36,29.14,10,8,0,45,31,60,0.00,6,Rain-Snow,281
2013-2-20,37,35,33,30,27,25,87,73,60,29.51,29.48,29.37,10,9,2,23,12,29,0.00,6,Snow,232
2013-2-21,37,35,33,30,28,24,87,74,57,29.81,29.62,29.35,10,7,1,21,10,36,0.01,8,Rain-Snow,237
2013-2-22,37,34,30,32,28,22,93,76,57,29.80,29.17,29.00,10,5,0,34,16,53,0.09,7,Rain-Snow,191
2013-2-23,37,34,30,36,30,25,93,86,70,29.49,28.93,28.70,10,5,1,28,8,38,0.16,8,Rain-Snow,233
2013-2-24,30,24,19,25,19,12,93,81,69,29.71,29.61,29.52,9,3,0,38,15,55,0.00,8,Fog-Snow,334
2013-2-25,21,19,17,14,12,8,86,74,57,29.99,29.79,29.60,10,5,0,38,29,54,0.00,7,Snow,343
2013-2-26,24,22,21,18,15,10,78,72,63,29.86,29.48,29.22,10,9,5,18,11,28,0.00,6,Snow,17
2013-2-27,30,26,23,25,22,17,93,82,74,29.36,29.21,29.18,10,6,2,22,10,32,0.00,8,Snow,311
2013-2-28,30,28,23,27,23,17,93,80,67,29.97,29.72,29.43,10,8,2,28,20,34,0.00,7,Snow,327